Latest Weather Observations for Biloela

IDQ60801

Issued at 8:35 pm EST Saturday 19 April 2014 (issued every 30 minutes, with the page automatically refreshed every 10 minutes)

About weather observations | Map of weather stations | Latest weather observations for QLD | Other Formats
Station Details ID: 039089 Name: THANGOOL AIRPORT Lat: -24.49 Lon: 150.57 Height: 193.1 m
Data from the previous 72 hours. | See also: Recent months at Biloela
Date/Time
EST
Temp
°C
App
Temp
°C
Dew
Point
Rel
Hum
%
Delta-T
°C
Wind Press
QNH
hPa
Press
MSL
hPa
Rain
since 9 am
mm
Dir
 
Spd
km/h
Gust
km/h
Spd
kts
Gust
kts
19/08:30pm 14.2 13.9 10.2 77 2.1 ENE 2 6 1 3 1016.8 - 0.0
19/08:00pm 14.6 13.9 10.2 75 2.3 ESE 4 7 2 4 1016.5 - 0.0
19/07:30pm 15.9 14.7 9.6 66 3.3 E 6 7 3 4 1016.2 - 0.0
19/07:00pm 16.7 16.9 10.5 67 3.3 CALM 0 0 0 0 1015.8 - 0.0
19/06:30pm 18.1 18.1 9.7 58 4.5 CALM 0 0 0 0 1015.4 - 0.0
19/06:00pm 20.3 20.5 10.4 53 5.4 CALM 0 0 0 0 1015.2 1014.4 0.0
19/05:30pm 23.7 22.1 8.2 37 8.3 SW 6 7 3 4 1014.9 - 0.0
19/05:00pm 26.3 24.7 8.8 33 9.6 WSW 7 11 4 6 1014.6 - 0.0
19/04:30pm 27.4 24.6 6.8 27 11.0 SW 11 17 6 9 1014.4 - 0.0
19/04:00pm 27.7 24.4 4.7 23 11.8 SW 11 15 6 8 1014.3 - 0.0
19/03:30pm 28.1 25.5 6.2 25 11.6 SSW 9 13 5 7 1014.3 - 0.0
19/03:00pm 28.3 25.3 5.8 24 11.8 SSW 11 19 6 10 1014.5 1013.7 0.0
19/02:30pm 27.9 24.6 6.6 26 11.3 SW 13 35 7 19 1014.6 - 0.0
19/02:00pm 28.1 26.4 9.9 32 10.3 NNE 9 13 5 7 1014.8 - 0.0
19/01:30pm 27.7 26.0 7.5 28 10.9 SE 6 11 3 6 1015.1 - 0.0
19/01:00pm 27.3 25.4 7.7 29 10.6 WNW 7 11 4 6 1015.5 - 0.0
19/12:30pm 26.8 25.0 7.8 30 10.3 W 7 19 4 10 1016.0 - 0.0
19/12:00pm 27.0 25.5 10.7 36 9.3 S 9 15 5 8 1016.5 1015.8 0.0
19/11:30am 26.4 24.9 8.4 32 9.8 WNW 6 17 3 9 1017.0 - 0.0
19/11:00am 25.8 24.3 8.3 33 9.5 SSE 6 13 3 7 1017.6 - 0.0
19/10:30am 25.0 23.3 8.5 35 8.9 SSE 7 13 4 7 1018.1 - 0.0
19/10:00am 23.9 23.0 10.6 43 7.4 SE 6 11 3 6 1018.5 - 0.0
19/09:30am 21.8 21.0 11.2 51 5.9 SE 6 9 3 5 1018.7 - 0.0
19/09:00am 19.9 19.9 12.4 62 4.2 E 4 9 2 5 1018.9 1018.1 0.0
19/08:30am 17.6 18.3 12.1 70 3.1 CALM 0 0 0 0 1019.0 - 0.0
19/08:00am 15.6 14.6 10.4 71 2.8 E 6 7 3 4 1018.9 - 0.0
19/07:30am 13.6 12.5 10.0 79 1.9 E 6 7 3 4 1018.8 - 0.0
19/07:00am 11.7 10.3 9.4 86 1.2 E 7 7 4 4 1018.6 - 0.0
19/06:30am 10.3 8.6 8.4 88 0.9 E 7 9 4 5 1018.5 - 0.0
19/06:00am 10.1 8.0 8.4 89 0.8 E 9 9 5 5 1018.2 1017.4 0.0
19/05:30am 9.9 8.2 8.3 90 0.8 E 7 9 4 5 1018.0 - 0.0
19/05:00am 10.5 8.4 8.4 87 1.0 E 9 11 5 6 1017.7 - 0.0
19/04:30am 10.9 8.5 8.8 87 1.0 E 11 11 6 6 1017.6 - 0.0
19/04:00am 10.1 8.5 8.9 92 0.6 ESE 7 7 4 4 1017.4 - 0.0
19/03:30am 11.0 9.4 8.9 87 1.1 E 7 9 4 5 1017.2 - 0.0
19/03:00am 11.1 8.9 9.2 88 1.0 E 11 11 6 6 1017.3 1016.6 0.0
19/02:30am 11.1 9.7 9.4 89 0.9 E 7 9 4 5 1017.5 - 0.0
19/02:00am 11.1 9.6 9.0 87 1.1 ESE 7 9 4 5 1017.5 - 0.0
19/01:30am 12.3 10.5 9.5 83 1.4 E 9 11 5 6 1017.4 - 0.0
19/01:00am 12.1 9.9 9.3 83 1.4 E 11 11 6 6 1017.4 - 0.0
19/12:30am 12.5 10.7 9.5 82 1.5 E 9 11 5 6 1017.6 - 0.0
19/12:00am 12.9 10.8 9.7 81 1.6 E 11 11 6 6 1017.6 1016.9 0.0
 
Date/Time
EST
Temp
°C
App
Temp
°C
Dew
Point
Rel
Hum
%
Delta-T
°C
Wind Press
QNH
hPa
Press
MSL
hPa
Rain
since 9 am
mm
Dir
 
Spd
km/h
Gust
km/h
Spd
kts
Gust
kts
18/11:30pm 13.0 11.6 9.6 80 1.8 ESE 7 9 4 5 1017.7 - 0.0
18/11:00pm 14.7 12.5 9.5 71 2.7 ESE 11 15 6 8 1017.6 - 0.0
18/10:30pm 14.9 12.8 9.9 72 2.6 E 11 13 6 7 1017.9 - 0.0
18/10:00pm 15.0 13.3 10.0 72 2.6 E 9 13 5 7 1018.0 - 0.0
18/09:30pm 14.5 13.4 10.5 77 2.1 E 7 9 4 5 1017.7 - 0.0
18/09:00pm 15.2 14.0 10.2 72 2.6 E 7 9 4 5 1017.5 1016.8 0.0
18/08:30pm 16.2 15.3 10.7 70 3.0 E 6 7 3 4 1017.5 - 0.0
18/08:00pm 16.7 15.4 9.9 64 3.6 E 7 9 4 5 1017.3 - 0.0
18/07:30pm 17.1 16.2 10.7 66 3.5 E 6 7 3 4 1017.0 - 0.0
18/07:00pm 17.6 17.8 10.5 63 3.8 CALM 0 0 0 0 1016.6 - 0.0
18/06:30pm 19.2 17.8 8.8 51 5.5 SW 6 7 3 4 1016.2 - 0.0
18/06:00pm 21.1 19.7 9.7 48 6.2 WSW 7 9 4 5 1015.9 1015.1 0.0
18/05:30pm 24.1 22.4 8.5 37 8.4 SW 7 11 4 6 1015.5 - 0.0
18/05:00pm 26.2 23.7 8.2 32 9.8 SW 11 15 6 8 1015.1 - 0.0
18/04:30pm 26.9 23.7 6.9 28 10.7 SSW 13 20 7 11 1014.9 - 0.0
18/04:00pm 27.3 24.2 7.2 28 10.8 WSW 13 19 7 10 1014.5 - 0.0
18/03:30pm 27.5 24.0 7.4 28 10.8 WSW 15 20 8 11 1014.3 - 0.0
18/03:00pm 27.6 24.3 8.0 29 10.7 SW 15 24 8 13 1014.4 1013.6 0.0
18/02:30pm 27.7 24.3 9.0 31 10.4 W 17 20 9 11 1014.5 - 0.0
18/02:00pm 27.6 24.0 8.5 30 10.5 SSW 17 24 9 13 1014.7 - 0.0
18/01:30pm 27.3 24.9 8.7 31 10.2 SW 11 19 6 10 1014.9 - 0.0
18/01:00pm 27.3 25.7 10.1 34 9.7 SW 9 17 5 9 1015.2 - 0.0
18/12:30pm 27.1 24.9 10.7 35 9.3 S 13 24 7 13 1015.7 - 0.0
18/12:00pm 26.4 23.0 9.3 34 9.5 WSW 17 22 9 12 1016.4 1015.6 0.0
18/11:30am 26.2 24.9 11.2 39 8.6 SSW 9 17 5 9 1016.8 - 0.0
18/11:00am 25.9 24.8 12.0 42 8.0 WSW 9 19 5 10 1017.3 - 0.0
18/10:30am 24.7 23.5 11.6 44 7.5 SSE 9 13 5 7 1017.9 - 0.0
18/10:00am 24.2 23.6 13.4 51 6.3 ESE 9 13 5 7 1018.2 - 0.0
18/09:30am 22.4 23.5 16.7 70 3.5 E 6 9 3 5 1018.4 - 0.0
18/09:00am 20.9 22.2 17.5 81 2.1 E 7 9 4 5 1018.6 1017.8 0.0
18/08:30am 18.5 19.0 15.6 83 1.7 E 7 11 4 6 1018.6 - 0.0
18/08:08am 17.2 17.5 14.5 84 1.6 ESE 6 9 3 5 1018.4 - 0.0
18/08:00am 16.3 16.2 13.8 85 1.4 SE 7 9 4 5 1018.4 - 0.0
18/07:30am 15.5 15.4 13.3 87 1.2 E 6 7 3 4 1018.3 - 0.0
18/07:00am 14.6 14.6 13.5 93 0.6 E 6 7 3 4 1018.2 - 0.0
18/06:57am 14.3 14.0 13.2 93 0.6 E 7 7 4 4 1018.2 - 0.0
18/06:30am 13.1 12.7 12.3 95 0.4 E 6 7 3 4 1018.0 - 0.0
18/06:00am 12.9 13.5 12.0 94 0.5 CALM 0 9 0 5 1017.9 1017.1 0.0
18/05:30am 13.1 13.7 12.0 93 0.6 CALM 0 0 0 0 1017.9 - 0.0
18/05:00am 13.4 12.8 12.3 93 0.6 E 7 9 4 5 1017.6 - 0.0
18/04:30am 13.8 13.2 12.4 91 0.8 ESE 7 9 4 5 1017.4 - 0.0
18/04:00am 14.2 13.7 12.8 91 0.8 ESE 7 9 4 5 1017.4 - 0.0
18/03:30am 14.3 13.5 12.9 91 0.8 E 9 11 5 6 1017.3 - 0.0
18/03:00am 14.6 13.8 13.0 90 0.9 ESE 9 9 5 5 1017.5 1016.8 0.0
18/02:30am 14.9 14.2 13.1 89 1.0 ESE 9 11 5 6 1017.6 - 0.0
18/02:00am 14.9 14.4 12.8 87 1.2 ESE 7 11 4 6 1017.7 - 0.0
18/01:30am 15.3 15.1 13.0 86 1.3 E 6 7 3 4 1017.7 - 0.0
18/01:00am 15.8 15.3 12.7 82 1.7 E 7 11 4 6 1017.9 - 0.0
18/12:30am 15.8 15.8 13.6 87 1.2 ENE 6 7 3 4 1018.0 - 0.0
18/12:00am 15.7 16.2 14.1 90 0.9 ESE 4 7 2 4 1018.1 1017.3 0.0
 
Date/Time
EST
Temp
°C
App
Temp
°C
Dew
Point
Rel
Hum
%
Delta-T
°C
Wind Press
QNH
hPa
Press
MSL
hPa
Rain
since 9 am
mm
Dir
 
Spd
km/h
Gust
km/h
Spd
kts
Gust
kts
17/11:30pm 15.4 16.5 13.4 88 1.1 CALM 0 0 0 0 1018.2 - 0.0
17/11:00pm 15.7 16.8 13.4 86 1.3 CALM 0 0 0 0 1018.1 - 0.0
17/10:30pm 15.9 17.0 13.4 85 1.4 CALM 0 0 0 0 1018.0 - 0.0
17/10:00pm 16.1 15.7 12.3 78 2.1 E 6 7 3 4 1018.1 - 0.0
17/09:30pm 16.9 18.0 13.4 80 2.0 CALM 0 0 0 0 1017.9 - 0.0
17/09:00pm 17.2 17.2 13.5 79 2.1 SE 6 9 3 5 1017.7 1017.0 0.0
17/08:30pm 17.7 17.4 14.4 81 1.9 E 9 11 5 6 1017.4 - 0.0
17/08:00pm 18.2 18.9 14.5 79 2.2 ESE 4 7 2 4 1017.2 - 0.0
17/07:30pm 18.9 20.2 14.0 73 2.8 CALM 0 0 0 0 1016.9 - 0.0
17/07:00pm 20.6 22.0 14.5 68 3.6 CALM 0 0 0 0 1016.4 - 0.0
17/06:30pm 21.0 21.7 14.4 66 3.9 SE 4 7 2 4 1016.1 - 0.0
17/06:00pm 22.4 23.8 14.3 60 4.8 CALM 0 6 0 3 1015.8 1015.0 0.0
17/05:30pm 24.8 25.1 13.4 49 6.7 S 4 7 2 4 1015.6 - 0.0
17/05:00pm 26.6 25.7 13.7 45 7.7 SSW 11 17 6 9 1015.2 - 0.0
17/04:30pm 27.1 26.1 12.3 39 8.6 SSW 9 17 5 9 1015.1 - 0.0
17/04:00pm 27.5 26.4 13.1 41 8.5 WSW 11 17 6 9 1014.9 - 0.0
17/03:30pm 27.5 27.3 14.8 45 7.7 WSW 9 11 5 6 1014.8 - 0.0
17/03:00pm 27.9 27.5 14.2 43 8.3 SW 9 17 5 9 1014.7 1013.9 0.0
17/02:30pm 27.7 27.4 15.4 47 7.6 W 11 17 6 9 1015.0 - 0.0
17/02:00pm 26.5 27.0 15.5 50 6.7 WSW 7 11 4 6 1015.3 - 0.0
17/01:30pm 26.5 26.2 15.5 50 6.7 W 11 19 6 10 1015.6 - 0.0
17/01:00pm 27.9 29.0 17.1 51 6.8 NE 7 13 4 7 1016.0 - 0.0
17/12:30pm 27.3 28.6 17.5 55 6.2 ENE 7 15 4 8 1016.4 - 0.0
17/12:00pm 26.6 26.9 15.9 51 6.6 NNW 9 19 5 10 1017.1 1016.4 0.0
17/11:30am 26.6 27.9 17.1 56 6.0 NNE 6 11 3 6 1017.6 - 0.0
17/11:00am 25.7 27.1 17.9 62 4.9 N 7 15 4 8 1018.3 - 0.0
17/10:30am 24.3 26.3 17.8 67 4.1 WNW 4 11 2 6 1018.6 - 0.0
17/10:18am 24.1 25.9 18.3 70 3.7 W 6 13 3 7 1018.7 - 0.0
17/10:00am 24.6 27.0 19.7 74 3.2 WSW 6 9 3 5 1018.8 - 0.0
17/09:30am 23.8 26.2 18.9 74 3.1 ENE 4 7 2 4 1018.9 - 0.0
17/09:00am 22.5 25.2 18.7 79 2.4 E 2 7 1 4 1019.0 1018.2 0.0
17/08:30am 20.0 21.1 17.2 84 1.7 E 7 7 4 4 1018.9 - 0.0
17/08:17am 20.2 21.7 17.6 85 1.6 ENE 6 7 3 4 1018.9 - 0.0
17/08:00am 19.3 21.2 16.7 85 1.6 E 2 7 1 4 1018.9 - 0.0
17/07:30am 18.0 19.6 16.0 88 1.2 ESE 2 9 1 5 1018.7 - 0.0
17/07:00am 16.5 18.3 15.5 94 0.6 CALM 0 0 0 0 1018.4 - 0.0
17/06:30am 15.7 16.1 14.7 94 0.6 SE 6 9 3 5 1018.0 - 0.0
17/06:00am 15.9 15.9 15.1 95 0.5 E 9 13 5 7 1017.5 1016.8 0.0
17/05:30am 16.0 16.4 15.2 95 0.5 E 7 9 4 5 1017.2 - 0.0
17/05:00am 16.0 16.4 15.2 95 0.5 E 7 9 4 5 1017.1 - 0.0
17/04:48am 16.1 16.8 15.5 96 0.4 E 6 7 3 4 1017.0 - 0.0
17/04:32am 15.4 16.6 14.8 96 0.3 ESE 2 7 1 4 1016.9 - 0.0
17/04:30am 15.2 16.6 14.4 95 0.5 CALM 0 0 0 0 1016.9 - 0.0
17/04:00am 15.3 16.7 14.5 95 0.5 CALM 0 0 0 0 1016.7 - 0.0
17/03:30am 15.6 16.0 14.8 95 0.5 ESE 6 7 3 4 1016.5 - 0.0
17/03:00am 15.4 15.5 14.4 94 0.6 SE 7 9 4 5 1016.3 1015.5 0.0
17/02:30am 15.7 17.3 14.9 95 0.5 CALM 0 9 0 5 1016.2 - 0.0
17/02:00am 15.8 16.2 14.7 93 0.6 ESE 6 7 3 4 1016.2 - 0.0
17/01:30am 16.4 17.0 15.3 93 0.6 ENE 6 6 3 3 1016.4 - 0.0
17/01:00am 17.0 17.8 15.9 93 0.7 SE 6 9 3 5 1016.7 - 0.0
17/12:30am 16.8 18.7 15.7 93 0.7 CALM 0 0 0 0 1016.7 - 0.0
17/12:00am 17.3 18.9 16.0 92 0.8 ESE 2 9 1 5 1016.8 1016.1 0.0
 
Date/Time
EST
Temp
°C
App
Temp
°C
Dew
Point
Rel
Hum
%
Delta-T
°C
Wind Press
QNH
hPa
Press
MSL
hPa
Rain
since 9 am
mm
Dir
 
Spd
km/h
Gust
km/h
Spd
kts
Gust
kts
16/11:30pm 17.9 20.1 16.4 91 0.9 CALM 0 0 0 0 1016.8 - 0.0
16/11:00pm 18.1 20.3 16.4 90 1.0 CALM 0 0 0 0 1016.8 - 0.0
16/10:30pm 18.2 20.2 16.0 87 1.3 CALM 0 4 0 2 1016.7 - 0.0
16/10:00pm 19.2 20.2 16.4 84 1.7 ESE 6 6 3 3 1016.5 - 0.0
16/09:30pm 19.9 20.6 16.2 79 2.2 ESE 7 9 4 5 1016.5 - 0.0
16/09:00pm 21.1 22.4 17.1 78 2.5 ESE 6 7 3 4 1016.4 1015.6 0.0

Other Formats:

Comma delimited format used in spreadsheet applications
http://www.bom.gov.au/fwo/IDQ60801/IDQ60801.94376.axf

JavaScript Object Notation format (JSON) in row-major order
http://www.bom.gov.au/fwo/IDQ60801/IDQ60801.94376.json